Time;durP1;ratioP1;P1;durP2;ratioP2;P2;SDS_P1;SDS_P2;PMS_P1;PMS_P2;Temp;Humidity;BMP_temperature;BMP_pressure;BME280_temperature;BME280_humidity;BME280_pressure;Samples;Min_cycle;Max_cycle;Signal;HPM_P1;HPM_P2
2022/07/12 00:01:47;;;;;;;;;2.00;2.00;;;;;18.73;68.97;102424.34;5010446;28;8885;-64
2022/07/12 00:04:13;;;;;;;;;0.50;0.50;;;;;18.73;69.31;102431.69;5008448;28;8916;-65
2022/07/12 00:06:40;;;;;;;;;2.00;2.00;;;;;18.71;69.30;102428.31;5014134;28;8832;-65
2022/07/12 00:09:07;;;;;;;;;2.00;2.00;;;;;18.72;69.08;102436.31;5015552;28;8874;-64
2022/07/12 00:11:35;;;;;;;;;1.50;1.50;;;;;18.71;69.04;102442.78;5012952;28;8858;-65
2022/07/12 00:14:02;;;;;;;;;2.50;2.50;;;;;18.70;69.11;102441.13;5011319;28;8834;-66
2022/07/12 00:16:29;;;;;;;;;3.75;3.00;;;;;18.68;69.26;102435.00;5012293;28;8877;-66
2022/07/12 00:18:55;;;;;;;;;2.75;2.75;;;;;18.66;68.73;102428.91;4996717;28;9545;-66
2022/07/12 00:21:22;;;;;;;;;3.00;3.00;;;;;18.65;69.04;102437.31;5010873;28;8878;-66
2022/07/12 00:23:48;;;;;;;;;2.00;1.75;;;;;18.61;69.00;102434.16;5010245;28;8881;-66
2022/07/12 00:26:15;;;;;;;;;2.00;2.00;;;;;18.61;68.93;102428.72;5011154;28;8960;-65
2022/07/12 00:28:41;;;;;;;;;2.00;1.50;;;;;18.59;69.16;102427.22;5011608;28;8958;-65
2022/07/12 00:31:08;;;;;;;;;2.75;2.75;;;;;18.56;69.02;102424.94;5008902;28;9545;-65
2022/07/12 00:33:35;;;;;;;;;2.00;2.00;;;;;18.55;69.24;102434.97;4995636;28;8841;-66
2022/07/12 00:36:02;;;;;;;;;2.00;2.00;;;;;18.53;69.10;102437.94;5010410;28;9650;-65
2022/07/12 00:38:28;;;;;;;;;2.25;2.00;;;;;18.52;69.33;102438.97;5024856;28;8828;-65
2022/07/12 00:40:55;;;;;;;;;3.00;2.25;;;;;18.52;69.18;102441.72;5027860;28;8919;-65
2022/07/12 00:43:22;;;;;;;;;3.00;3.00;;;;;18.50;69.21;102437.50;5027622;28;8820;-64
2022/07/12 00:45:48;;;;;;;;;4.00;4.00;;;;;18.47;69.30;102444.22;5018351;28;8912;-65
2022/07/12 00:48:17;;;;;;;;;2.00;2.00;;;;;18.45;69.13;102440.03;5020386;28;8980;-65
2022/07/12 00:50:47;;;;;;;;;4.00;4.00;;;;;18.44;69.27;102446.53;5010033;28;8867;-64
2022/07/12 00:53:14;;;;;;;;;2.75;2.75;;;;;18.44;69.27;102449.25;5008939;28;8991;-64
2022/07/12 00:55:41;;;;;;;;;2.00;2.00;;;;;18.41;69.45;102442.31;5011522;28;8919;-65
2022/07/12 00:58:07;;;;;;;;;3.00;2.75;;;;;18.39;69.23;102436.25;5010069;28;8835;-65
2022/07/12 01:00:33;;;;;;;;;2.00;2.00;;;;;18.37;69.25;102438.31;5010124;28;8897;-65
2022/07/12 01:03:02;;;;;;;;;3.50;3.50;;;;;18.37;69.22;102443.78;5010143;28;8867;-65
2022/07/12 01:05:30;;;;;;;;;2.25;2.25;;;;;18.39;69.11;102443.56;5010034;28;8950;-66
2022/07/12 01:07:56;;;;;;;;;2.75;2.00;;;;;18.40;68.97;102445.25;5011393;28;8846;-66
2022/07/12 01:10:23;;;;;;;;;3.00;2.00;;;;;18.39;69.05;102443.56;5009871;28;8941;-65
2022/07/12 01:12:50;;;;;;;;;2.25;2.25;;;;;18.37;68.95;102446.50;5013860;28;8831;-65
2022/07/12 01:15:20;;;;;;;;;2.75;2.75;;;;;18.35;69.14;102445.88;5024903;28;8913;-65
2022/07/12 01:17:47;;;;;;;;;3.25;3.25;;;;;18.34;68.94;102440.63;5014717;28;8874;-65
2022/07/12 01:20:19;;;;;;;;;3.00;2.25;;;;;18.33;68.97;102434.34;5023027;28;8878;-66
2022/07/12 01:22:52;;;;;;;;;3.00;2.50;;;;;18.32;68.90;102432.66;5030583;28;8840;-65
2022/07/12 01:25:20;;;;;;;;;3.00;3.00;;;;;18.30;69.08;102423.84;5031989;28;8922;-65
2022/07/12 01:27:46;;;;;;;;;4.50;4.00;;;;;18.29;69.07;102417.56;5008924;28;8852;-65
2022/07/12 01:30:13;;;;;;;;;4.00;4.00;;;;;18.26;69.31;102415.22;5017892;28;8839;-65
2022/07/12 01:32:40;;;;;;;;;3.50;3.50;;;;;18.24;69.23;102408.31;5012865;28;8829;-65
2022/07/12 01:35:07;;;;;;;;;2.50;2.50;;;;;18.23;69.20;102414.81;5013909;28;8830;-65
2022/07/12 01:37:35;;;;;;;;;5.00;4.25;;;;;18.20;69.50;102410.63;5012510;28;8826;-65
2022/07/12 01:40:04;;;;;;;;;2.50;2.50;;;;;18.19;69.59;102406.22;5013263;28;8847;-66
2022/07/12 01:42:31;;;;;;;;;5.00;3.00;;;;;18.18;69.38;102411.88;5022360;28;8843;-66
2022/07/12 01:44:58;;;;;;;;;3.00;2.50;;;;;18.17;69.33;102419.19;5011595;28;8875;-65
2022/07/12 01:47:29;;;;;;;;;2.25;2.25;;;;;18.17;69.55;102423.81;5032132;28;8877;-65
2022/07/12 01:49:55;;;;;;;;;2.75;2.75;;;;;18.15;69.60;102428.63;5029790;28;8843;-65
2022/07/12 01:52:22;;;;;;;;;3.00;3.00;;;;;18.14;69.54;102424.22;5026169;28;8962;-65
2022/07/12 01:54:49;;;;;;;;;3.25;3.25;;;;;18.13;69.37;102428.84;5024247;28;8863;-66
2022/07/12 01:57:15;;;;;;;;;2.00;2.00;;;;;18.13;69.42;102430.72;5026200;28;8825;-65
2022/07/12 01:59:42;;;;;;;;;2.25;2.25;;;;;18.12;69.54;102438.06;5030235;28;8977;-65
2022/07/12 02:02:09;;;;;;;;;1.00;1.00;;;;;18.13;69.70;102438.91;5030537;28;8828;-65
2022/07/12 02:04:36;;;;;;;;;4.50;3.75;;;;;18.12;69.45;102432.63;5011269;28;8958;-65
2022/07/12 02:07:05;;;;;;;;;3.00;3.00;;;;;18.11;69.18;102433.66;5007387;28;8834;-65
2022/07/12 02:09:31;;;;;;;;;2.00;2.00;;;;;18.10;69.50;102431.13;5026241;28;8846;-66
2022/07/12 02:11:59;;;;;;;;;4.25;2.75;;;;;18.08;69.21;102431.34;5031236;28;8966;-65
2022/07/12 02:14:26;;;;;;;;;2.00;2.00;;;;;18.09;69.28;102438.47;5026221;28;8896;-65
2022/07/12 02:16:53;;;;;;;;;3.25;2.25;;;;;18.07;69.40;102420.63;5027971;28;8981;-65
2022/07/12 02:19:19;;;;;;;;;2.75;2.75;;;;;18.06;69.13;102422.53;5031329;28;8941;-65
2022/07/12 02:21:46;;;;;;;;;2.00;2.00;;;;;18.02;69.38;102421.25;5032685;28;8835;-65
2022/07/12 02:24:12;;;;;;;;;2.00;2.00;;;;;18.00;69.31;102413.28;5009977;28;8874;-65
2022/07/12 02:26:38;;;;;;;;;2.25;2.25;;;;;18.00;69.27;102409.75;5029478;28;8934;-66
2022/07/12 02:29:06;;;;;;;;;3.00;3.00;;;;;17.98;69.43;102406.38;5028482;28;8851;-66
2022/07/12 02:31:32;;;;;;;;;3.00;3.00;;;;;17.98;69.36;102412.66;5024075;28;8854;-66
2022/07/12 02:33:59;;;;;;;;;4.50;4.25;;;;;17.97;69.11;102412.88;5008202;28;8917;-66
2022/07/12 02:36:26;;;;;;;;;3.50;3.50;;;;;17.94;69.16;102408.66;5026117;28;9577;-65
2022/07/12 02:38:52;;;;;;;;;3.75;3.75;;;;;17.94;69.31;102410.53;5024688;28;8889;-65
2022/07/12 02:41:19;;;;;;;;;2.00;2.00;;;;;17.90;69.41;102409.28;5030628;28;9644;-65
2022/07/12 02:43:45;;;;;;;;;3.75;3.25;;;;;17.89;69.23;102413.88;5024761;28;8823;-65
2022/07/12 02:46:13;;;;;;;;;2.50;2.50;;;;;17.87;69.27;102418.72;5018226;28;8909;-65
2022/07/12 02:48:41;;;;;;;;;5.50;5.00;;;;;17.87;69.19;102420.59;5005218;28;8817;-65
2022/07/12 02:51:08;;;;;;;;;5.00;3.75;;;;;17.85;69.51;102425.41;5020685;28;8893;-65
2022/07/12 02:53:35;;;;;;;;;3.00;3.00;;;;;17.82;69.37;102423.06;5021072;28;8843;-66
2022/07/12 02:56:08;;;;;;;;;4.00;4.00;;;;;17.78;69.48;102433.53;5023258;28;8831;-65
2022/07/12 02:58:36;;;;;;;;;4.50;4.50;;;;;17.74;69.75;102424.97;5008459;28;8927;-65
2022/07/12 03:01:02;;;;;;;;;4.25;4.25;;;;;17.71;69.63;102436.22;5005957;28;8875;-65
2022/07/12 03:03:29;;;;;;;;;6.00;4.00;;;;;17.69;69.42;102437.44;5021149;28;8811;-65
2022/07/12 03:05:57;;;;;;;;;6.00;6.00;;;;;17.66;69.78;102444.16;5026116;28;8862;-65
2022/07/12 03:08:23;;;;;;;;;3.00;3.00;;;;;17.63;69.81;102438.28;5022386;28;8831;-65
2022/07/12 03:10:50;;;;;;;;;5.75;5.75;;;;;17.59;69.58;102442.44;5029616;28;8844;-69
2022/07/12 03:13:16;;;;;;;;;3.75;3.75;;;;;17.53;69.73;102439.47;5027088;28;8830;-65
2022/07/12 03:15:45;;;;;;;;;3.00;3.00;;;;;17.51;70.01;102435.28;5027169;28;8823;-66
2022/07/12 03:18:13;;;;;;;;;3.00;3.00;;;;;17.48;69.91;102430.22;5022694;28;8820;-65
2022/07/12 03:20:40;;;;;;;;;3.00;3.00;;;;;17.46;69.95;102433.16;5030784;28;9499;-65
2022/07/12 03:23:06;;;;;;;;;4.00;3.00;;;;;17.46;69.96;102435.88;5029879;28;8843;-68
2022/07/12 03:25:33;;;;;;;;;5.00;5.00;;;;;17.48;70.20;102427.50;5022332;28;8831;-66
2022/07/12 03:27:59;;;;;;;;;3.00;3.00;;;;;17.48;70.00;102430.22;5025539;28;8881;-65
2022/07/12 03:30:27;;;;;;;;;5.00;5.00;;;;;17.48;69.97;102432.94;5011514;28;8844;-65
2022/07/12 03:32:53;;;;;;;;;3.00;1.50;;;;;17.49;70.00;102431.91;5027497;28;8915;-65
2022/07/12 03:35:20;;;;;;;;;3.00;2.25;;;;;17.48;69.94;102428.34;5029435;28;8938;-65
2022/07/12 03:37:49;;;;;;;;;5.25;5.25;;;;;17.49;69.97;102429.19;5029746;28;8828;-71
2022/07/12 03:40:17;;;;;;;;;7.00;6.00;;;;;17.47;69.58;102431.28;5022693;28;8847;-65
2022/07/12 03:42:45;;;;;;;;;5.00;4.33;;;;;17.46;69.99;102435.03;5023703;28;8910;-65
2022/07/12 03:45:13;;;;;;;;;4.33;3.67;;;;;17.43;70.00;102436.28;5021212;28;9030;-65
2022/07/12 03:47:41;;;;;;;;;3.00;3.00;;;;;17.43;69.83;102435.44;5029655;28;8920;-65
2022/07/12 03:50:11;;;;;;;;;4.50;4.50;;;;;17.40;69.84;102441.28;5017986;28;8946;-65
2022/07/12 03:52:39;;;;;;;;;4.00;4.00;;;;;17.37;69.88;102428.91;5023518;28;8851;-65
2022/07/12 03:55:06;;;;;;;;;6.75;4.00;;;;;17.34;69.98;102426.59;5008740;28;8827;-65
2022/07/12 03:57:33;;;;;;;;;3.75;3.75;;;;;17.33;70.18;102427.63;5029896;28;8844;-65
2022/07/12 04:00:00;;;;;;;;;3.50;3.50;;;;;17.30;70.07;102425.31;5027173;28;8843;-65
2022/07/12 04:02:26;;;;;;;;;4.50;4.50;;;;;17.30;70.20;102420.72;5027132;28;8909;-65
2022/07/12 04:04:52;;;;;;;;;3.25;3.25;;;;;17.29;70.50;102429.91;5023093;28;8831;-65
2022/07/12 04:07:20;;;;;;;;;7.00;4.00;;;;;17.31;70.46;102429.72;5004724;28;8955;-65
2022/07/12 04:09:46;;;;;;;;;3.00;3.00;;;;;17.33;70.51;102424.91;5021564;28;8873;-66
2022/07/12 04:12:12;;;;;;;;;3.00;3.00;;;;;17.35;70.95;102433.72;5029516;28;8851;-66
2022/07/12 04:14:40;;;;;;;;;3.00;3.00;;;;;17.37;70.69;102425.34;5029237;28;8827;-66
2022/07/12 04:17:07;;;;;;;;;3.50;3.50;;;;;17.40;70.47;102433.13;5028323;28;8909;-65
2022/07/12 04:19:33;;;;;;;;;4.00;4.00;;;;;17.42;70.46;102437.34;5009315;28;8929;-65
2022/07/12 04:22:00;;;;;;;;;5.00;3.50;;;;;17.45;70.62;102442.34;5024789;28;8837;-66
2022/07/12 04:24:27;;;;;;;;;4.50;4.25;;;;;17.46;70.56;102444.06;5029065;28;8858;-65
2022/07/12 04:26:53;;;;;;;;;3.00;3.00;;;;;17.49;70.77;102445.50;5028127;28;9620;-66
2022/07/12 04:29:21;;;;;;;;;3.75;3.25;;;;;17.51;70.75;102452.44;5025873;28;9574;-66
2022/07/12 04:31:48;;;;;;;;;5.25;4.50;;;;;17.55;70.82;102452.91;5058775;22;8879;-64
2022/07/12 04:34:18;;;;;;;;;3.25;3.25;;;;;17.57;70.93;102452.69;5043690;28;8831;-65
2022/07/12 04:36:45;;;;;;;;;5.50;5.50;;;;;17.59;71.06;102454.16;5026673;28;8916;-64
2022/07/12 04:39:11;;;;;;;;;6.00;3.50;;;;;17.62;71.29;102442.84;5034401;28;8931;-65
2022/07/12 04:41:38;;;;;;;;;4.75;4.75;;;;;17.63;70.83;102446.44;5025667;28;8930;-65
2022/07/12 04:44:08;;;;;;;;;4.75;4.75;;;;;17.64;70.78;102440.78;5029305;28;8848;-65
2022/07/12 04:46:34;;;;;;;;;5.00;4.75;;;;;17.66;71.28;102438.72;5032367;28;8839;-65
2022/07/12 04:49:01;;;;;;;;;5.75;5.75;;;;;17.67;70.97;102439.56;5044538;28;8823;-65
2022/07/12 04:51:28;;;;;;;;;4.75;4.50;;;;;17.67;71.40;102432.22;5026697;28;8877;-65
2022/07/12 04:53:54;;;;;;;;;3.75;3.75;;;;;17.70;71.23;102437.25;5038426;28;8892;-64
2022/07/12 04:56:21;;;;;;;;;4.00;4.00;;;;;17.75;70.65;102453.03;5041615;28;8952;-65
2022/07/12 04:58:48;;;;;;;;;3.00;3.00;;;;;17.78;71.11;102455.31;5041785;28;8893;-64
2022/07/12 05:01:16;;;;;;;;;4.00;4.00;;;;;17.78;70.78;102453.47;5046275;28;8847;-65
2022/07/12 05:03:43;;;;;;;;;4.50;4.50;;;;;17.81;70.84;102454.94;5033209;28;9835;-65
2022/07/12 05:06:09;;;;;;;;;8.50;5.00;;;;;17.84;70.70;102448.25;5042018;28;8948;-64
2022/07/12 05:08:36;;;;;;;;;3.75;3.25;;;;;17.85;70.71;102452.63;5030339;28;9649;-65
2022/07/12 05:11:02;;;;;;;;;4.50;3.75;;;;;17.87;70.81;102456.03;5032325;28;8936;-64
2022/07/12 05:13:29;;;;;;;;;5.00;5.00;;;;;17.91;70.62;102452.69;5036837;28;8817;-64
2022/07/12 05:15:56;;;;;;;;;2.25;2.25;;;;;17.94;70.84;102452.25;5031534;28;8852;-65
2022/07/12 05:18:23;;;;;;;;;3.50;2.75;;;;;17.98;70.58;102453.53;5040396;28;8838;-64
2022/07/12 05:20:49;;;;;;;;;2.75;2.50;;;;;18.03;70.40;102456.50;5034473;28;8929;-64
2022/07/12 05:23:18;;;;;;;;;2.00;2.00;;;;;18.08;70.52;102457.75;5024960;28;8903;-65
2022/07/12 05:25:45;;;;;;;;;4.00;4.00;;;;;18.12;70.35;102459.03;5025252;28;8828;-65
2022/07/12 05:28:13;;;;;;;;;2.75;2.75;;;;;18.16;70.35;102466.59;5043286;28;8868;-65
2022/07/12 05:30:40;;;;;;;;;3.00;3.00;;;;;18.17;70.29;102460.09;5037914;28;8907;-65
2022/07/12 05:33:06;;;;;;;;;2.00;2.00;;;;;18.22;70.38;102467.66;5031537;28;8845;-65
2022/07/12 05:35:33;;;;;;;;;3.00;3.00;;;;;18.29;70.52;102472.06;5028886;28;8850;-64
2022/07/12 05:37:59;;;;;;;;;4.00;4.00;;;;;18.42;70.37;102468.53;5037278;28;8888;-65
2022/07/12 05:40:26;;;;;;;;;3.00;3.00;;;;;18.59;70.17;102465.41;5041429;28;8942;-65
2022/07/12 05:42:52;;;;;;;;;4.75;4.75;;;;;18.71;69.49;102470.06;5035793;28;9602;-65
2022/07/12 05:45:20;;;;;;;;;7.25;5.25;;;;;18.86;69.50;102460.84;5019647;28;8820;-65
2022/07/12 05:47:46;;;;;;;;;5.25;5.25;;;;;18.96;68.89;102462.13;5036007;28;8845;-65
2022/07/12 05:50:12;;;;;;;;;6.00;6.00;;;;;19.05;68.63;102462.75;5030322;28;8834;-64
2022/07/12 05:55:24;;;;;;;;;8.00;7.50;;;;;19.44;68.06;102466.44;5027192;28;8835;-65
2022/07/12 05:57:51;;;;;;;;;6.00;6.00;;;;;19.60;67.50;102463.25;5043948;28;8835;-65
2022/07/12 06:00:17;;;;;;;;;7.00;7.00;;;;;19.72;67.22;102467.03;5029538;28;8845;-65
2022/07/12 06:02:43;;;;;;;;;8.50;7.00;;;;;19.83;66.66;102462.78;5038017;28;8811;-63
2022/07/12 06:05:10;;;;;;;;;4.75;3.50;;;;;19.90;66.20;102469.06;5023390;28;8817;-67
2022/07/12 06:07:37;;;;;;;;;2.75;2.75;;;;;19.96;66.03;102476.38;5036253;28;8835;-64
2022/07/12 06:10:03;;;;;;;;;6.75;5.00;;;;;19.97;65.77;102466.28;5029843;28;8810;-66
2022/07/12 06:12:30;;;;;;;;;6.25;5.75;;;;;19.95;65.81;102472.00;5044617;28;8815;-65
2022/07/12 06:14:56;;;;;;;;;4.25;4.25;;;;;19.94;65.87;102461.28;5035430;28;8828;-65
2022/07/12 06:17:23;;;;;;;;;7.50;7.50;;;;;19.95;65.75;102471.16;5030887;28;8838;-65
2022/07/12 06:19:50;;;;;;;;;5.00;5.00;;;;;19.95;65.67;102472.00;5036663;28;8829;-65
2022/07/12 06:22:16;;;;;;;;;5.00;5.00;;;;;19.95;65.57;102466.53;5026682;28;8830;-64
2022/07/12 06:24:43;;;;;;;;;6.25;4.75;;;;;19.94;65.72;102474.94;5031116;28;8814;-64
2022/07/12 06:27:09;;;;;;;;;3.00;3.00;;;;;19.92;65.85;102479.78;5021115;28;9004;-65
2022/07/12 06:29:36;;;;;;;;;3.25;3.25;;;;;19.91;66.08;102478.94;5019096;28;8847;-64
2022/07/12 06:32:02;;;;;;;;;3.00;3.00;;;;;19.88;66.10;102478.53;5036881;28;8814;-65
2022/07/12 06:34:29;;;;;;;;;5.00;5.00;;;;;19.83;65.86;102481.91;5031552;28;8822;-64
2022/07/12 06:36:55;;;;;;;;;4.50;4.50;;;;;19.80;65.92;102484.25;5023856;28;8848;-65
2022/07/12 06:39:22;;;;;;;;;4.00;4.00;;;;;19.78;66.06;102486.38;5015766;28;8840;-65
2022/07/12 06:41:48;;;;;;;;;5.00;5.00;;;;;19.79;66.04;102480.66;5022595;28;8960;-65
2022/07/12 06:44:15;;;;;;;;;3.00;2.00;;;;;19.80;66.08;102486.97;5012884;28;8919;-65
2022/07/12 06:46:41;;;;;;;;;3.00;3.00;;;;;19.81;66.02;102488.63;5022836;28;8950;-64
2022/07/12 06:49:14;;;;;;;;;5.25;5.25;;;;;19.84;66.20;102493.69;5020737;28;8826;-65
2022/07/12 06:51:41;;;;;;;;;4.75;3.50;;;;;19.84;66.02;102485.47;5024233;28;8845;-66
2022/07/12 06:54:07;;;;;;;;;4.00;4.00;;;;;19.86;66.17;102484.22;5025451;28;8802;-65
2022/07/12 06:56:33;;;;;;;;;4.00;4.00;;;;;19.87;65.95;102490.53;5021118;28;9657;-67
2022/07/12 06:59:00;;;;;;;;;4.00;4.00;;;;;19.86;65.83;102483.38;5017812;28;8856;-66
2022/07/12 07:01:26;;;;;;;;;6.25;6.25;;;;;19.87;65.82;102476.88;5019470;28;8928;-67
2022/07/12 07:03:53;;;;;;;;;4.00;4.00;;;;;19.90;65.60;102476.44;5022981;28;8829;-65
2022/07/12 07:06:20;;;;;;;;;6.50;6.50;;;;;19.91;65.51;102476.22;5010363;28;8820;-65
2022/07/12 07:08:46;;;;;;;;;3.25;3.25;;;;;19.97;65.14;102485.41;5023733;28;8849;-65
2022/07/12 07:11:13;;;;;;;;;9.50;8.00;;;;;20.00;65.05;102482.25;5025619;28;8826;-65
2022/07/12 07:13:39;;;;;;;;;7.75;7.25;;;;;20.02;64.73;102482.06;5024320;28;8947;-65
2022/07/12 07:16:13;;;;;;;;;6.00;4.25;;;;;20.03;64.43;102481.00;5029374;28;8814;-65
2022/07/12 07:18:40;;;;;;;;;5.00;5.00;;;;;20.04;64.41;102475.31;5023131;28;8849;-65
2022/07/12 07:21:06;;;;;;;;;7.50;6.00;;;;;20.08;64.30;102476.56;5016642;28;9570;-65
2022/07/12 07:23:33;;;;;;;;;5.00;5.00;;;;;20.14;64.28;102481.16;5022961;28;8841;-65
2022/07/12 07:25:59;;;;;;;;;3.25;2.50;;;;;20.23;64.26;102477.09;5011922;28;8898;-64
2022/07/12 07:28:26;;;;;;;;;5.00;4.50;;;;;20.30;64.48;102474.34;5034047;28;8848;-65
2022/07/12 07:31:12;;;;;;;;;8.00;8.00;;;;;20.32;63.97;102476.84;5027786;28;8952;-65
2022/07/12 07:33:39;;;;;;;;;8.00;8.00;;;;;20.32;63.85;102471.38;5025486;28;8960;-65
2022/07/12 07:36:05;;;;;;;;;8.00;8.00;;;;;20.32;63.84;102469.47;5025191;28;8947;-66
2022/07/12 07:38:32;;;;;;;;;7.00;7.00;;;;;20.35;63.69;102465.47;5015718;28;8914;-65
2022/07/12 07:40:58;;;;;;;;;8.75;8.75;;;;;20.33;63.51;102462.94;5015601;28;8919;-65
2022/07/12 07:43:24;;;;;;;;;6.75;6.75;;;;;20.39;63.63;102469.44;5016875;28;8845;-65
2022/07/12 07:45:52;;;;;;;;;6.25;6.25;;;;;20.43;63.35;102477.00;5013568;28;8845;-65
2022/07/12 07:48:18;;;;;;;;;9.25;8.25;;;;;20.44;62.95;102469.63;5023354;28;8839;-65
2022/07/12 07:50:51;;;;;;;;;4.75;4.00;;;;;20.48;63.18;102470.84;5026268;28;8818;-65
2022/07/12 07:53:17;;;;;;;;;4.50;4.50;;;;;20.47;63.02;102477.41;5038301;28;8841;-65
2022/07/12 07:55:44;;;;;;;;;8.50;8.50;;;;;20.46;63.07;102478.47;5015047;28;8821;-65
2022/07/12 07:58:10;;;;;;;;;8.25;6.50;;;;;20.48;63.24;102479.06;5012556;28;8947;-65
2022/07/12 08:00:37;;;;;;;;;3.50;3.50;;;;;20.52;63.23;102480.31;5017221;28;8856;-65
2022/07/12 08:03:03;;;;;;;;;6.25;6.25;;;;;20.48;63.13;102481.81;5022378;28;8848;-65
2022/07/12 08:05:30;;;;;;;;;6.00;6.00;;;;;20.54;63.14;102480.97;5026759;28;8832;-65
2022/07/12 08:07:56;;;;;;;;;4.50;4.50;;;;;20.57;63.26;102487.88;5020737;28;8963;-62
2022/07/12 08:10:24;;;;;;;;;3.75;3.75;;;;;20.62;62.99;102491.63;5019878;28;8833;-64
2022/07/12 08:12:51;;;;;;;;;5.00;5.00;;;;;20.66;62.92;102490.13;5023912;28;8833;-64
2022/07/12 08:15:17;;;;;;;;;7.75;7.75;;;;;20.74;62.95;102491.75;5020756;28;8944;-65
2022/07/12 08:17:44;;;;;;;;;8.00;8.00;;;;;20.76;62.84;102488.78;5037820;28;8826;-65
2022/07/12 08:20:19;;;;;;;;;9.00;9.00;;;;;20.78;62.64;102484.75;5028361;28;8820;-65
2022/07/12 08:23:06;;;;;;;;;7.25;7.25;;;;;20.86;62.13;102478.19;5013687;28;9863;-64
2022/07/12 08:25:32;;;;;;;;;7.75;5.00;;;;;20.90;61.88;102477.53;5024687;28;8825;-64
2022/07/12 08:27:59;;;;;;;;;13.00;13.00;;;;;20.92;61.74;102477.31;5026637;28;8832;-66
2022/07/12 08:30:26;;;;;;;;;8.75;8.75;;;;;20.96;61.67;102478.53;5015623;28;8890;-64
2022/07/12 08:32:54;;;;;;;;;7.00;7.00;;;;;21.02;61.60;102480.34;5029519;28;8814;-65
2022/07/12 08:35:21;;;;;;;;;10.00;10.00;;;;;21.09;61.26;102472.09;5020614;28;8920;-65
2022/07/12 08:37:47;;;;;;;;;6.00;6.00;;;;;21.18;61.19;102474.31;5025225;28;8837;-65
2022/07/12 08:40:14;;;;;;;;;7.75;7.75;;;;;21.27;61.11;102484.97;5033908;28;9663;-64
2022/07/12 08:42:41;;;;;;;;;10.00;9.00;;;;;21.31;60.83;102480.72;5033776;28;8847;-65
2022/07/12 08:45:09;;;;;;;;;6.50;6.50;;;;;21.38;60.51;102487.00;5037284;28;8834;-65
2022/07/12 08:47:37;;;;;;;;;6.25;5.75;;;;;21.40;60.18;102482.16;5018490;28;9159;-65
2022/07/12 08:50:20;;;;;;;;;7.00;7.00;;;;;21.43;60.11;102481.69;5017673;28;8867;-64
2022/07/12 08:52:48;;;;;;;;;6.75;5.50;;;;;21.51;60.37;102478.63;5032598;28;8920;-65
2022/07/12 08:55:16;;;;;;;;;7.00;7.00;;;;;21.60;60.57;102476.47;5022080;28;8826;-64
2022/07/12 08:57:43;;;;;;;;;8.00;8.00;;;;;21.66;59.72;102472.78;5032122;28;8896;-65
2022/07/12 09:00:10;;;;;;;;;7.25;7.25;;;;;21.73;58.65;102470.81;5017434;28;8917;-65
2022/07/12 09:02:50;;;;;;;;;5.00;5.00;;;;;21.86;58.27;102475.28;5021545;28;8841;-64
2022/07/12 09:05:19;;;;;;;;;4.00;4.00;;;;;22.01;57.94;102470.25;5031716;28;8834;-64
2022/07/12 09:07:47;;;;;;;;;5.00;5.00;;;;;22.08;56.44;102481.13;5031325;28;8809;-65
2022/07/12 09:10:14;;;;;;;;;7.00;3.00;;;;;22.12;56.63;102479.59;5025074;28;8928;-65
2022/07/12 09:12:42;;;;;;;;;3.00;3.00;;;;;22.18;57.05;102484.19;5034432;28;9530;-67
2022/07/12 09:15:21;;;;;;;;;3.00;3.00;;;;;22.28;56.82;102480.88;5022870;28;8837;-65
2022/07/12 09:18:03;;;;;;;;;5.75;5.00;;;;;22.29;57.09;102482.56;5031087;28;8816;-65
2022/07/12 09:20:34;;;;;;;;;9.00;9.00;;;;;22.25;56.95;102479.47;5033360;28;8826;-65
2022/07/12 09:23:05;;;;;;;;;3.00;3.00;;;;;22.34;56.90;102474.47;5030812;28;8820;-67
2022/07/12 09:25:32;;;;;;;;;4.00;3.75;;;;;22.45;56.34;102476.44;5026986;28;8842;-65
2022/07/12 09:28:03;;;;;;;;;5.50;4.75;;;;;22.50;56.22;102470.22;5018344;28;9623;-66
2022/07/12 09:30:30;;;;;;;;;4.00;3.25;;;;;22.56;55.61;102472.84;5031346;28;8848;-66
2022/07/12 09:36:17;;;;;;;;;3.00;3.00;;;;;22.68;55.19;102468.22;5012167;28;8837;-65
2022/07/12 09:38:54;;;;;;;;;5.00;5.00;;;;;22.78;55.03;102481.41;5015717;28;8834;-66
2022/07/12 09:41:21;;;;;;;;;4.25;3.00;;;;;22.91;54.88;102472.13;5028693;28;8882;-66
2022/07/12 09:43:49;;;;;;;;;5.50;5.00;;;;;23.02;54.66;102482.28;5032703;28;8822;-66
2022/07/12 09:46:17;;;;;;;;;5.00;4.75;;;;;23.04;53.79;102480.13;5026907;28;9650;-66
2022/07/12 09:48:45;;;;;;;;;6.00;4.50;;;;;23.10;53.49;102479.19;5025133;28;8973;-65
2022/07/12 09:51:20;;;;;;;;;5.25;4.75;;;;;23.16;53.07;102474.66;5013241;28;8968;-65
2022/07/12 09:53:48;;;;;;;;;5.75;4.75;;;;;23.14;53.00;102479.56;5016182;28;8916;-66
2022/07/12 09:56:17;;;;;;;;;4.00;4.00;;;;;23.06;52.05;102478.00;5013591;28;8832;-66
2022/07/12 09:58:50;;;;;;;;;4.75;4.75;;;;;23.09;52.04;102483.03;5018527;28;8836;-65
2022/07/12 10:01:17;;;;;;;;;4.00;4.00;;;;;23.07;51.67;102473.34;5013796;28;8898;-66
2022/07/12 10:03:45;;;;;;;;;6.00;6.00;;;;;23.10;50.48;102481.94;5012661;28;8911;-66
2022/07/12 10:06:15;;;;;;;;;3.00;3.00;;;;;23.22;51.64;102472.88;5029076;28;9305;-65
2022/07/12 10:08:42;;;;;;;;;4.25;4.25;;;;;23.35;52.51;102481.69;5014953;28;8837;-64
2022/07/12 10:11:13;;;;;;;;;5.25;5.25;;;;;23.40;52.74;102478.22;5031234;28;8842;-65
2022/07/12 10:13:59;;;;;;;;;3.00;3.00;;;;;23.54;52.61;102481.56;5030133;28;8818;-65
2022/07/12 10:16:29;;;;;;;;;5.50;5.50;;;;;23.58;52.05;102483.59;5025683;28;8849;-65
2022/07/12 10:19:29;;;;;;;;;4.50;4.00;;;;;23.58;52.00;102482.75;5035432;28;8913;-65
2022/07/12 10:21:57;;;;;;;;;8.50;7.75;;;;;23.60;52.54;102483.34;5030506;28;8850;-64
2022/07/12 10:24:33;;;;;;;;;7.50;7.00;;;;;23.61;52.57;102485.84;5020902;28;8832;-65
2022/07/12 10:27:14;;;;;;;;;6.00;6.00;;;;;23.58;52.14;102488.25;5023222;28;8826;-65
2022/07/12 10:29:43;;;;;;;;;5.25;5.25;;;;;23.57;52.29;102490.13;5030519;28;8888;-65
2022/07/12 10:32:24;;;;;;;;;3.75;3.75;;;;;23.58;52.63;102489.09;5012674;28;8856;-65
2022/07/12 10:35:02;;;;;;;;;5.25;5.00;;;;;23.55;52.50;102497.81;5020712;28;8862;-64
2022/07/12 10:37:29;;;;;;;;;4.50;4.50;;;;;23.57;52.60;102498.38;5015405;28;9574;-65
2022/07/12 10:40:16;;;;;;;;;4.50;4.00;;;;;23.64;52.69;102496.34;5032090;28;9575;-65
2022/07/12 10:43:00;;;;;;;;;8.50;8.50;;;;;23.67;52.41;102495.91;5014201;28;8840;-65
2022/07/12 10:45:41;;;;;;;;;4.25;4.25;;;;;23.71;51.69;102490.75;5020577;28;8860;-64
2022/07/12 10:48:13;;;;;;;;;7.25;6.00;;;;;23.76;50.69;102493.63;5018072;28;8844;-65
2022/07/12 10:50:41;;;;;;;;;4.50;4.50;;;;;23.87;51.00;102494.69;5014782;28;8906;-64
2022/07/12 10:53:21;;;;;;;;;3.75;3.00;;;;;23.97;51.17;102488.53;5037198;28;8897;-65
2022/07/12 10:56:17;;;;;;;;;3.75;3.75;;;;;24.12;51.15;102494.34;5026801;28;8826;-65
2022/07/12 10:58:54;;;;;;;;;6.00;6.00;;;;;24.14;50.44;102484.75;5030942;28;8892;-66
2022/07/12 11:01:23;;;;;;;;;5.00;3.25;;;;;24.19;50.37;102484.03;5027694;28;8850;-65
2022/07/12 11:03:55;;;;;;;;;5.00;5.00;;;;;24.24;50.02;102484.13;5031115;28;8852;-64
2022/07/12 11:06:24;;;;;;;;;6.50;5.00;;;;;24.37;49.71;102478.31;5031993;28;8980;-63
2022/07/12 11:09:05;;;;;;;;;5.75;5.75;;;;;24.40;49.10;102488.88;5034864;28;8850;-65
2022/07/12 11:11:33;;;;;;;;;5.50;4.50;;;;;24.41;49.00;102486.94;5025697;28;8831;-65
2022/07/12 11:14:01;;;;;;;;;5.50;5.50;;;;;24.37;49.11;102491.25;5023894;28;8892;-64
2022/07/12 11:16:30;;;;;;;;;5.25;4.00;;;;;24.45;49.60;102476.28;5043701;28;8827;-63
2022/07/12 11:18:57;;;;;;;;;7.50;6.50;;;;;24.56;49.14;102472.63;5035106;28;9546;-64
2022/07/12 11:21:24;;;;;;;;;4.25;4.25;;;;;24.59;48.69;102475.72;5038455;28;8826;-65
2022/07/12 11:23:51;;;;;;;;;6.50;6.50;;;;;24.61;47.94;102473.56;5024041;28;9103;-65
2022/07/12 11:26:18;;;;;;;;;2.75;2.75;;;;;24.67;48.35;102467.06;5032965;28;8827;-65
2022/07/12 11:28:47;;;;;;;;;3.75;3.75;;;;;24.76;48.16;102461.13;5039130;28;8889;-65
2022/07/12 11:31:16;;;;;;;;;4.50;4.00;;;;;24.79;47.73;102466.97;5038663;28;8833;-66
2022/07/12 11:33:44;;;;;;;;;3.25;3.25;;;;;24.86;47.95;102455.78;5029529;28;8897;-65
2022/07/12 11:36:12;;;;;;;;;3.00;3.00;;;;;24.97;47.70;102457.63;5031910;28;8863;-66
2022/07/12 11:38:44;;;;;;;;;3.00;3.00;;;;;25.03;47.49;102464.84;5033619;28;9604;-65
2022/07/12 11:41:12;;;;;;;;;4.00;4.00;;;;;25.06;46.16;102449.75;5010804;28;8821;-65
2022/07/12 11:43:40;;;;;;;;;4.00;4.00;;;;;25.10;46.38;102453.72;5015001;28;8832;-65
2022/07/12 11:46:08;;;;;;;;;3.75;3.75;;;;;25.15;46.17;102456.53;5020957;28;8867;-66